Time;durP1;ratioP1;P1;durP2;ratioP2;P2;SDS_P1;SDS_P2;PMS_P1;PMS_P2;Temp;Humidity;BMP_temperature;BMP_pressure;BME280_temperature;BME280_humidity;BME280_pressure;Samples;Min_cycle;Max_cycle;Signal;HPM_P1;HPM_P2
2021/08/28 00:00:50;;;;;;;3.67;1.50;;;;;;;12.75;100.00;95899.00;5032384;28;20423;-75
2021/08/28 00:03:16;;;;;;;3.33;1.30;;;;;;;12.85;100.00;95894.00;5032349;28;20427;-75
2021/08/28 00:05:41;;;;;;;1.60;1.30;;;;;;;12.84;100.00;95893.19;5033220;28;20418;-75
2021/08/28 00:08:07;;;;;;;3.60;1.40;;;;;;;12.80;100.00;95894.34;5033584;28;20415;-75
2021/08/28 00:10:32;;;;;;;2.65;1.20;;;;;;;12.71;100.00;95892.38;5033436;28;20916;-75
2021/08/28 00:12:57;;;;;;;3.10;1.40;;;;;;;12.66;100.00;95883.25;5032111;28;20434;-75
2021/08/28 00:15:24;;;;;;;2.57;1.07;;;;;;;12.63;100.00;95891.25;5033062;28;20498;-75
2021/08/28 00:17:50;;;;;;;2.50;1.52;;;;;;;12.64;100.00;95888.53;5032069;28;20419;-75
2021/08/28 00:20:15;;;;;;;3.03;1.30;;;;;;;12.59;100.00;95882.81;5033424;28;20411;-75
2021/08/28 00:22:41;;;;;;;3.37;1.80;;;;;;;12.55;100.00;95882.22;5033418;28;21050;-74
2021/08/28 00:25:08;;;;;;;3.95;1.52;;;;;;;12.67;100.00;95885.72;5033033;28;20426;-75
2021/08/28 00:27:34;;;;;;;5.70;1.05;;;;;;;12.68;100.00;95879.63;5032848;28;20417;-74
2021/08/28 00:29:59;;;;;;;3.08;1.70;;;;;;;12.68;100.00;95886.56;5033170;28;20410;-74
2021/08/28 00:32:26;;;;;;;3.45;1.50;;;;;;;12.68;100.00;95884.81;5030828;28;20463;-75
2021/08/28 00:34:51;;;;;;;2.40;1.20;;;;;;;12.73;100.00;95880.13;5032942;28;20989;-75
2021/08/28 00:37:17;;;;;;;5.27;1.50;;;;;;;12.67;100.00;95883.13;5031530;28;20523;-75
2021/08/28 00:39:42;;;;;;;1.83;1.13;;;;;;;12.50;100.00;95878.28;5031668;28;20434;-75
2021/08/28 00:42:08;;;;;;;2.13;1.20;;;;;;;12.52;100.00;95882.41;5033006;28;20481;-75
2021/08/28 00:44:36;;;;;;;1.90;1.10;;;;;;;12.65;100.00;95879.00;5031780;28;20414;-75
2021/08/28 00:47:02;;;;;;;3.42;1.52;;;;;;;12.61;100.00;95883.56;5031627;28;20462;-75
2021/08/28 00:49:29;;;;;;;3.55;1.40;;;;;;;12.58;100.00;95884.59;5032956;28;20442;-75
2021/08/28 00:51:54;;;;;;;3.05;1.40;;;;;;;12.65;100.00;95882.41;5032846;28;20445;-75
2021/08/28 00:54:20;;;;;;;3.88;1.70;;;;;;;12.57;100.00;95880.34;5031431;28;20991;-75
2021/08/28 00:56:46;;;;;;;3.83;1.67;;;;;;;12.50;100.00;95886.91;5030929;28;20419;-75
2021/08/28 00:59:12;;;;;;;5.60;2.08;;;;;;;12.52;100.00;95881.59;5032557;28;20485;-75
2021/08/28 01:01:42;;;;;;;2.70;1.70;;;;;;;12.49;100.00;95887.00;5032562;28;20465;-75
2021/08/28 01:04:14;;;;;;;2.85;1.13;;;;;;;12.53;100.00;95889.28;5032511;28;20477;-75
2021/08/28 01:06:48;;;;;;;2.70;1.40;;;;;;;12.56;100.00;95886.47;5032224;28;20411;-75
2021/08/28 01:09:19;;;;;;;5.53;1.40;;;;;;;12.57;100.00;95888.16;5032448;28;20427;-75
2021/08/28 01:11:49;;;;;;;3.08;1.35;;;;;;;12.62;100.00;95887.81;5031166;28;20419;-75
2021/08/28 01:14:19;;;;;;;4.82;1.50;;;;;;;12.48;100.00;95885.34;5032133;28;20431;-75
2021/08/28 01:16:47;;;;;;;2.63;1.60;;;;;;;12.39;100.00;95881.63;5030643;28;20419;-75
2021/08/28 01:19:21;;;;;;;5.78;1.88;;;;;;;12.42;100.00;95875.34;5031001;28;20737;-74
2021/08/28 01:21:49;;;;;;;3.33;1.70;;;;;;;12.43;100.00;95879.63;5032164;28;20418;-74
2021/08/28 01:24:15;;;;;;;2.70;2.00;;;;;;;12.35;100.00;95873.19;5030777;28;20415;-74
2021/08/28 01:26:46;;;;;;;3.40;1.70;;;;;;;12.28;100.00;95874.53;5034551;28;20483;-75
2021/08/28 01:29:20;;;;;;;2.17;1.70;;;;;;;12.25;100.00;95884.31;5036729;28;20415;-75
2021/08/28 01:31:49;;;;;;;4.03;2.08;;;;;;;12.25;100.00;95885.13;5032337;28;20412;-75
2021/08/28 01:34:16;;;;;;;2.50;1.90;;;;;;;12.27;100.00;95879.81;5032036;28;20908;-74
2021/08/28 01:36:42;;;;;;;3.15;1.80;;;;;;;12.28;100.00;95877.13;5031591;28;20450;-74
2021/08/28 01:39:10;;;;;;;3.33;1.83;;;;;;;12.31;100.00;95887.31;5031940;28;20506;-74
2021/08/28 01:41:36;;;;;;;3.47;1.70;;;;;;;12.30;100.00;95883.03;5030463;28;20410;-74
2021/08/28 01:44:02;;;;;;;3.90;2.08;;;;;;;12.28;100.00;95877.13;5031525;28;20777;-74
2021/08/28 01:46:29;;;;;;;3.85;1.88;;;;;;;12.31;100.00;95878.69;5031149;28;20421;-74
2021/08/28 01:48:56;;;;;;;4.63;2.00;;;;;;;12.32;100.00;95881.19;5030278;28;20485;-74
2021/08/28 01:51:22;;;;;;;4.50;2.10;;;;;;;12.25;100.00;95877.34;5031631;28;20864;-74
2021/08/28 01:53:48;;;;;;;3.80;2.30;;;;;;;12.24;100.00;95874.88;5030220;28;20472;-74
2021/08/28 01:56:14;;;;;;;5.43;2.80;;;;;;;12.23;100.00;95878.38;5029841;28;20423;-75
2021/08/28 01:58:40;;;;;;;4.25;2.40;;;;;;;12.20;100.00;95871.63;5031541;28;20489;-75
2021/08/28 02:01:06;;;;;;;3.57;2.40;;;;;;;12.18;100.00;95876.09;5031296;28;20909;-75
2021/08/28 02:03:32;;;;;;;3.30;2.57;;;;;;;12.14;100.00;95881.59;5030141;28;20880;-75
2021/08/28 02:06:02;;;;;;;3.28;2.20;;;;;;;12.23;100.00;95881.78;5030978;28;20415;-75
2021/08/28 02:08:32;;;;;;;5.15;2.95;;;;;;;12.15;100.00;95883.25;5030107;28;20493;-75
2021/08/28 02:11:01;;;;;;;3.40;2.50;;;;;;;12.17;100.00;95879.63;5031210;28;20766;-75
2021/08/28 02:13:32;;;;;;;6.53;2.90;;;;;;;12.21;100.00;95881.09;5031196;28;20422;-75
2021/08/28 02:16:04;;;;;;;5.22;2.83;;;;;;;12.26;100.00;95873.81;5029412;28;20423;-75
2021/08/28 02:18:38;;;;;;;4.35;2.20;;;;;;;12.25;100.00;95874.75;5031082;28;20506;-75
2021/08/28 02:21:04;;;;;;;5.53;2.55;;;;;;;12.23;100.00;95879.19;5030062;28;20780;-75
2021/08/28 02:23:35;;;;;;;4.20;2.42;;;;;;;12.18;100.00;95876.09;5029802;28;20506;-75
2021/08/28 02:26:04;;;;;;;7.00;2.60;;;;;;;12.15;100.00;95872.88;5030536;28;20419;-75
2021/08/28 02:28:34;;;;;;;5.73;2.87;;;;;;;12.14;100.00;95877.25;5029733;28;20426;-74
2021/08/28 02:31:02;;;;;;;5.03;2.70;;;;;;;12.11;100.00;95883.47;5031037;28;20498;-74
2021/08/28 02:33:28;;;;;;;3.55;2.38;;;;;;;12.14;100.00;95873.81;5030928;28;20426;-74
2021/08/28 02:35:56;;;;;;;3.83;2.40;;;;;;;12.15;100.00;95878.88;5030316;28;20507;-74
2021/08/28 02:38:23;;;;;;;2.55;2.25;;;;;;;12.20;100.00;95882.03;5030855;28;20438;-75
2021/08/28 02:40:50;;;;;;;3.65;2.30;;;;;;;12.27;100.00;95883.28;5030736;28;20427;-74
2021/08/28 02:43:16;;;;;;;5.88;2.40;;;;;;;12.35;100.00;95874.97;5030747;28;20419;-75
2021/08/28 02:45:42;;;;;;;3.80;2.33;;;;;;;12.30;100.00;95872.66;5030372;28;20450;-75
2021/08/28 02:48:10;;;;;;;3.53;2.85;;;;;;;12.22;100.00;95871.53;5030689;28;20450;-75
2021/08/28 02:50:38;;;;;;;4.68;2.78;;;;;;;12.19;100.00;95871.72;5029466;28;20959;-75
2021/08/28 02:53:07;;;;;;;6.07;3.00;;;;;;;12.20;100.00;95876.84;5030628;28;20762;-75
2021/08/28 02:55:34;;;;;;;2.88;2.00;;;;;;;12.14;100.00;95873.81;5029611;28;20425;-75
2021/08/28 02:58:00;;;;;;;5.55;2.50;;;;;;;12.15;100.00;95876.28;5029319;28;20518;-75
2021/08/28 03:00:26;;;;;;;5.18;2.53;;;;;;;12.16;100.00;95867.56;5030519;28;20427;-75
2021/08/28 03:02:52;;;;;;;4.30;2.47;;;;;;;12.11;100.00;95872.25;5030582;28;20415;-75
2021/08/28 03:05:18;;;;;;;2.72;2.15;;;;;;;12.24;100.00;95869.66;5030229;28;20450;-75
2021/08/28 03:07:45;;;;;;;4.10;2.43;;;;;;;12.22;100.00;95859.38;5030476;28;20438;-75
2021/08/28 03:10:13;;;;;;;5.03;2.67;;;;;;;12.15;100.00;95863.31;5030510;28;20960;-74
2021/08/28 03:12:39;;;;;;;5.10;2.88;;;;;;;12.17;100.00;95858.88;5030569;28;20423;-75
2021/08/28 03:15:06;;;;;;;4.65;2.88;;;;;;;12.18;100.00;95857.91;5030219;28;20419;-75
2021/08/28 03:17:32;;;;;;;7.13;2.80;;;;;;;12.11;100.00;95867.06;5030347;28;20438;-75
2021/08/28 03:19:58;;;;;;;4.35;2.90;;;;;;;12.15;100.00;95859.88;5029223;28;20805;-75
2021/08/28 03:22:25;;;;;;;3.72;2.67;;;;;;;12.31;100.00;95861.34;5030356;28;20427;-75
2021/08/28 03:24:52;;;;;;;3.90;2.90;;;;;;;12.35;100.00;95862.81;5029247;28;20438;-75
2021/08/28 03:27:20;;;;;;;4.75;2.92;;;;;;;12.32;100.00;95855.22;5030205;28;20422;-75
2021/08/28 03:29:47;;;;;;;4.00;2.95;;;;;;;12.34;100.00;95855.09;5029306;28;20812;-75
2021/08/28 03:32:14;;;;;;;5.30;3.13;;;;;;;12.33;100.00;95859.47;5030406;28;20477;-75
2021/08/28 03:34:39;;;;;;;4.10;2.75;;;;;;;12.45;100.00;95855.19;5030331;28;20828;-75
2021/08/28 03:37:06;;;;;;;3.17;2.70;;;;;;;12.54;100.00;95856.34;5029824;28;20423;-75
2021/08/28 03:39:32;;;;;;;3.83;3.28;;;;;;;12.52;100.00;95850.41;5029044;28;20423;-75
2021/08/28 03:41:57;;;;;;;3.93;3.00;;;;;;;12.52;100.00;95856.44;5028941;28;20422;-74
2021/08/28 03:44:24;;;;;;;3.87;2.70;;;;;;;12.59;100.00;95852.47;5030076;28;20828;-75
2021/08/28 03:46:50;;;;;;;3.73;2.77;;;;;;;12.54;100.00;95849.38;5028633;28;20423;-75
2021/08/28 03:49:16;;;;;;;4.80;3.22;;;;;;;12.46;100.00;95853.44;5030034;28;20808;-75
2021/08/28 03:51:42;;;;;;;4.60;3.70;;;;;;;12.30;100.00;95857.06;5030110;28;20455;-75
2021/08/28 03:54:08;;;;;;;6.70;3.45;;;;;;;12.22;100.00;95856.78;5028823;28;20419;-75
2021/08/28 03:56:35;;;;;;;4.50;3.40;;;;;;;12.32;100.00;95855.22;5029677;28;20481;-75
2021/08/28 03:59:00;;;;;;;6.03;3.85;;;;;;;12.24;100.00;95843.72;5030318;28;20411;-75
2021/08/28 04:01:27;;;;;;;5.47;4.57;;;;;;;12.19;100.00;95853.56;5029991;28;20427;-75
2021/08/28 04:03:53;;;;;;;5.75;3.92;;;;;;;12.18;100.00;95846.72;5028906;28;20947;-75
2021/08/28 04:06:19;;;;;;;5.60;3.30;;;;;;;12.23;100.00;95844.63;5029645;28;20494;-75
2021/08/28 04:08:48;;;;;;;4.30;3.13;;;;;;;12.30;100.00;95849.28;5032953;28;20996;-75
2021/08/28 04:11:13;;;;;;;6.45;4.38;;;;;;;12.13;100.00;95846.19;5033530;28;20909;-75
2021/08/28 04:13:39;;;;;;;6.90;4.22;;;;;;;12.08;100.00;95852.50;5032175;28;20417;-75
2021/08/28 04:16:04;;;;;;;5.30;3.80;;;;;;;12.03;100.00;95853.75;5033028;28;20995;-75
2021/08/28 04:18:31;;;;;;;5.93;4.53;;;;;;;12.10;100.00;95855.84;5032010;28;20514;-74
2021/08/28 04:20:57;;;;;;;5.25;3.50;;;;;;;12.12;100.00;95863.50;5032012;28;20497;-75
2021/08/28 04:23:22;;;;;;;4.00;3.38;;;;;;;12.16;100.00;95858.94;5033190;28;20969;-75
2021/08/28 04:25:48;;;;;;;6.17;3.63;;;;;;;12.24;100.00;95860.09;5032725;28;20415;-75
2021/08/28 04:28:13;;;;;;;7.07;4.10;;;;;;;12.22;100.00;95861.97;5033171;28;20423;-74
2021/08/28 04:30:38;;;;;;;6.65;4.20;;;;;;;12.14;100.00;95861.66;5037489;28;20481;-75
2021/08/28 04:33:04;;;;;;;7.65;4.57;;;;;;;12.08;100.00;95856.88;5037448;28;20457;-74
2021/08/28 04:35:31;;;;;;;6.28;4.22;;;;;;;12.19;100.00;95863.94;5032414;28;20415;-75
2021/08/28 04:37:56;;;;;;;4.80;4.30;;;;;;;12.19;100.00;95856.97;5033454;28;20505;-74
2021/08/28 04:40:22;;;;;;;6.43;4.93;;;;;;;12.10;100.00;95861.03;5032969;28;20498;-74
2021/08/28 04:42:47;;;;;;;5.90;5.13;;;;;;;12.00;100.00;95864.34;5032914;28;20931;-74
2021/08/28 04:45:13;;;;;;;5.77;5.17;;;;;;;11.98;100.00;95861.03;5032846;28;20501;-75
2021/08/28 04:47:39;;;;;;;7.37;5.43;;;;;;;11.98;100.00;95861.03;5032801;28;20450;-74
2021/08/28 04:50:05;;;;;;;7.97;5.30;;;;;;;12.03;100.00;95864.97;5032764;28;20418;-74
2021/08/28 04:52:32;;;;;;;8.07;5.95;;;;;;;12.03;100.00;95864.16;5031829;28;20430;-75
2021/08/28 04:54:57;;;;;;;6.53;4.95;;;;;;;12.07;100.00;95870.78;5032653;28;20897;-74
2021/08/28 04:57:23;;;;;;;8.03;6.20;;;;;;;11.99;100.00;95866.13;5032238;28;20422;-74
2021/08/28 04:59:48;;;;;;;9.20;5.43;;;;;;;12.04;100.00;95873.59;5032628;28;20425;-75
2021/08/28 05:02:13;;;;;;;6.43;5.80;;;;;;;12.08;100.00;95880.22;5032633;28;20465;-75
2021/08/28 05:04:39;;;;;;;8.37;5.53;;;;;;;12.02;100.00;95878.06;5032580;28;20415;-74
2021/08/28 05:07:04;;;;;;;7.20;5.57;;;;;;;11.94;100.00;95877.72;5032282;28;20407;-74
2021/08/28 05:09:31;;;;;;;8.13;5.85;;;;;;;11.91;100.00;95883.97;5031349;28;20936;-75
2021/08/28 05:11:56;;;;;;;9.10;5.68;;;;;;;11.98;100.00;95879.22;5031180;28;20427;-74
2021/08/28 05:14:22;;;;;;;8.05;4.93;;;;;;;11.96;100.00;95878.47;5032530;28;20777;-74
2021/08/28 05:16:48;;;;;;;7.43;5.07;;;;;;;11.94;100.00;95882.91;5032041;28;20450;-74
2021/08/28 05:19:13;;;;;;;6.13;5.32;;;;;;;11.92;100.00;95872.66;5031875;28;20418;-75
2021/08/28 05:21:39;;;;;;;5.78;5.18;;;;;;;11.97;100.00;95877.53;5032240;28;21003;-75
2021/08/28 05:24:04;;;;;;;6.97;5.80;;;;;;;11.94;100.00;95882.91;5032527;28;20822;-74
2021/08/28 05:26:31;;;;;;;11.07;5.63;;;;;;;11.84;100.00;95890.50;5030681;28;20430;-76
2021/08/28 05:28:56;;;;;;;9.38;5.93;;;;;;;11.89;100.00;95883.22;5032021;28;20418;-76
2021/08/28 05:31:22;;;;;;;5.70;5.00;;;;;;;11.93;100.00;95889.88;5032192;28;20495;-75
2021/08/28 05:33:47;;;;;;;6.03;5.43;;;;;;;11.94;100.00;95890.69;5032021;28;20447;-76
2021/08/28 05:36:13;;;;;;;6.60;5.50;;;;;;;11.99;100.00;95892.06;5031813;28;20984;-75
2021/08/28 05:38:38;;;;;;;8.65;6.28;;;;;;;11.84;100.00;95887.91;5030681;28;20419;-75
2021/08/28 05:41:04;;;;;;;6.43;5.80;;;;;;;11.84;100.00;95888.72;5032407;28;20415;-75
2021/08/28 05:43:30;;;;;;;8.03;5.87;;;;;;;11.89;100.00;95895.38;5030632;28;20426;-75
2021/08/28 05:45:56;;;;;;;6.53;5.90;;;;;;;11.90;100.00;95897.03;5031709;28;20473;-75
2021/08/28 05:48:21;;;;;;;8.33;6.03;;;;;;;11.93;100.00;95902.03;5032051;28;20454;-77
2021/08/28 05:50:47;;;;;;;7.67;5.50;;;;;;;11.99;100.00;95896.44;5030692;28;20425;-77
2021/08/28 05:53:12;;;;;;;7.20;6.10;;;;;;;11.95;100.00;95902.75;5031984;28;20975;-77
2021/08/28 05:55:37;;;;;;;7.72;6.20;;;;;;;11.91;100.00;95909.09;5032373;28;20425;-77
2021/08/28 05:58:03;;;;;;;8.67;5.80;;;;;;;11.89;100.00;95903.16;5033370;28;20422;-77
2021/08/28 06:00:30;;;;;;;9.57;6.13;;;;;;;11.84;100.00;95903.47;5032945;28;20422;-76
2021/08/28 06:02:55;;;;;;;9.75;6.22;;;;;;;11.83;100.00;95905.25;5031790;28;20488;-77
2021/08/28 06:05:20;;;;;;;6.73;5.47;;;;;;;11.96;100.00;95904.41;5031801;28;20871;-74
2021/08/28 06:07:46;;;;;;;7.93;5.83;;;;;;;11.99;100.00;95899.84;5037745;28;20422;-76
2021/08/28 06:10:11;;;;;;;6.63;4.82;;;;;;;11.97;100.00;95899.13;5040360;28;20505;-77
2021/08/28 06:12:37;;;;;;;6.13;5.07;;;;;;;12.09;100.00;95905.28;5038375;28;20963;-76
2021/08/28 06:15:05;;;;;;;7.10;5.40;;;;;;;12.27;100.00;95909.25;5034995;28;20423;-78
2021/08/28 06:17:32;;;;;;;7.75;5.63;;;;;;;12.08;100.00;95903.59;5033555;28;21075;-77
2021/08/28 06:19:57;;;;;;;6.18;5.57;;;;;;;12.07;100.00;95900.19;5029915;28;20431;-78
2021/08/28 06:22:23;;;;;;;6.17;5.30;;;;;;;12.14;100.00;95899.78;5031137;28;20426;-77
2021/08/28 06:24:48;;;;;;;7.43;6.07;;;;;;;12.12;100.00;95899.88;5032812;28;20451;-77
2021/08/28 06:27:14;;;;;;;9.55;5.63;;;;;;;12.12;100.00;95905.06;5033310;28;20427;-78
2021/08/28 06:29:39;;;;;;;6.23;5.63;;;;;;;12.08;100.00;95906.19;5031322;28;20437;-77
2021/08/28 06:32:05;;;;;;;8.03;6.03;;;;;;;12.18;100.00;95909.84;5037975;28;20469;-79
2021/08/28 06:34:32;;;;;;;6.03;5.47;;;;;;;12.35;100.00;95909.56;5031638;28;20415;-80
2021/08/28 06:36:58;;;;;;;7.03;5.78;;;;;;;12.45;100.00;95912.34;5031149;28;20422;-82
2021/08/28 06:39:23;;;;;;;8.43;5.82;;;;;;;12.42;100.00;95907.38;5032087;28;20782;-81
2021/08/28 06:41:49;;;;;;;7.72;6.20;;;;;;;12.46;100.00;95902.78;5032126;28;20418;-80
2021/08/28 06:44:16;;;;;;;9.13;6.35;;;;;;;12.45;100.00;95904.53;5032322;28;20415;-80
2021/08/28 06:46:41;;;;;;;8.10;6.00;;;;;;;12.49;100.00;95910.38;5031481;28;21002;-80
2021/08/28 06:49:07;;;;;;;9.83;6.07;;;;;;;12.62;100.00;95908.59;5031562;28;20427;-81
2021/08/28 06:51:34;;;;;;;6.72;5.55;;;;;;;12.58;100.00;95908.00;5031925;28;20415;-80
2021/08/28 06:53:59;;;;;;;7.70;6.30;;;;;;;12.64;100.00;95909.31;5031453;28;20513;-80
2021/08/28 06:56:25;;;;;;;6.90;5.67;;;;;;;12.71;100.00;95910.56;5031513;28;20423;-80
2021/08/28 06:58:50;;;;;;;6.70;6.00;;;;;;;12.59;100.00;95909.63;5032671;28;20885;-80
2021/08/28 07:01:16;;;;;;;7.20;6.03;;;;;;;12.47;100.00;95910.50;5032629;28;21028;-80
2021/08/28 07:03:41;;;;;;;6.80;6.10;;;;;;;12.34;100.00;95914.84;5032894;28;20435;-80
2021/08/28 07:06:07;;;;;;;6.45;5.53;;;;;;;12.35;100.00;95906.97;5032069;28;20411;-80
2021/08/28 07:08:33;;;;;;;5.65;5.10;;;;;;;12.47;100.00;95909.66;5032854;28;20418;-81
2021/08/28 07:10:59;;;;;;;5.93;5.22;;;;;;;12.57;100.00;95905.50;5031576;28;20506;-80
2021/08/28 07:13:26;;;;;;;7.63;5.57;;;;;;;12.38;100.00;95908.50;5031450;28;20514;-81
2021/08/28 07:15:51;;;;;;;5.70;5.03;;;;;;;12.23;100.00;95902.56;5031017;28;20426;-79
2021/08/28 07:18:17;;;;;;;7.18;5.65;;;;;;;12.33;100.00;95910.59;5033055;28;20415;-81
2021/08/28 07:20:42;;;;;;;5.78;5.18;;;;;;;12.32;100.00;95903.75;5032406;28;20784;-81
2021/08/28 07:23:08;;;;;;;9.40;6.80;;;;;;;12.24;100.00;95911.22;5031009;28;20422;-79
2021/08/28 07:25:37;;;;;;;6.97;5.97;;;;;;;12.21;100.00;95903.63;5031079;28;20474;-80
2021/08/28 07:28:03;;;;;;;7.60;6.28;;;;;;;12.23;100.00;95899.16;5030731;28;20433;-81
2021/08/28 07:30:29;;;;;;;7.40;6.15;;;;;;;12.13;100.00;95904.16;5030998;28;20522;-80
2021/08/28 07:32:56;;;;;;;6.10;5.37;;;;;;;12.20;100.00;95894.16;5034204;28;20451;-80
2021/08/28 07:35:21;;;;;;;6.15;5.55;;;;;;;12.41;100.00;95907.47;5036367;28;20430;-80
2021/08/28 07:37:47;;;;;;;10.35;5.97;;;;;;;12.53;100.00;95911.81;5035520;28;20419;-80
2021/08/28 07:40:13;;;;;;;6.03;5.40;;;;;;;12.67;100.00;95905.69;5032194;28;20963;-81
2021/08/28 07:42:40;;;;;;;6.55;5.95;;;;;;;12.67;100.00;95901.31;5034703;28;20415;-80
2021/08/28 07:45:06;;;;;;;7.47;5.85;;;;;;;12.65;100.00;95908.41;5035112;28;20418;-80
2021/08/28 07:47:31;;;;;;;6.93;6.32;;;;;;;12.57;100.00;95913.31;5034982;28;20430;-81
2021/08/28 07:49:57;;;;;;;9.30;6.90;;;;;;;12.68;100.00;95909.94;5035889;28;20418;-79
2021/08/28 07:52:22;;;;;;;7.67;6.97;;;;;;;12.61;100.00;95914.75;5035317;28;20415;-79
2021/08/28 07:54:48;;;;;;;7.63;6.93;;;;;;;12.62;100.00;95918.19;5034473;28;20458;-80
2021/08/28 07:57:13;;;;;;;6.80;6.20;;;;;;;12.78;100.00;95905.78;5034281;28;20426;-79
2021/08/28 07:59:40;;;;;;;7.03;6.33;;;;;;;12.70;100.00;95919.31;5034487;28;20481;-80
2021/08/28 08:02:05;;;;;;;9.63;5.80;;;;;;;12.89;100.00;95916.25;5034473;28;20446;-79
2021/08/28 08:04:31;;;;;;;6.75;6.05;;;;;;;12.82;100.00;95917.63;5034497;28;20418;-80
2021/08/28 08:06:56;;;;;;;6.53;5.88;;;;;;;13.03;100.00;95926.53;5034097;28;20437;-80
2021/08/28 08:09:22;;;;;;;4.43;3.93;;;;;;;13.13;100.00;95924.13;5034379;28;20422;-79
2021/08/28 08:11:47;;;;;;;4.50;3.87;;;;;;;13.05;100.00;95923.81;5034224;28;20415;-79
2021/08/28 08:14:13;;;;;;;4.80;3.80;;;;;;;13.19;100.00;95928.03;5034551;28;20469;-80
2021/08/28 08:16:40;;;;;;;6.20;4.70;;;;;;;13.13;100.00;95925.91;5033919;28;20443;-80
2021/08/28 08:19:05;;;;;;;5.00;4.50;;;;;;;13.20;100.00;95927.97;5033828;28;20518;-79
2021/08/28 08:21:31;;;;;;;5.77;4.10;;;;;;;13.44;100.00;95929.78;5035445;28;20833;-79
2021/08/28 08:23:56;;;;;;;4.37;3.97;;;;;;;13.62;100.00;95920.66;5033598;28;20431;-81
2021/08/28 08:26:22;;;;;;;5.25;3.38;;;;;;;13.65;100.00;95912.63;5033812;28;20522;-79
2021/08/28 08:28:47;;;;;;;3.50;3.20;;;;;;;13.64;100.00;95915.31;5035241;28;20754;-80
2021/08/28 08:31:13;;;;;;;4.17;3.47;;;;;;;13.84;100.00;95917.31;5033834;28;20411;-81
2021/08/28 08:33:40;;;;;;;3.83;3.07;;;;;;;13.88;100.00;95915.31;5033939;28;20422;-79
2021/08/28 08:36:05;;;;;;;5.10;3.47;;;;;;;13.97;98.77;95922.44;5033753;28;20457;-79
2021/08/28 08:38:31;;;;;;;4.25;2.83;;;;;;;13.89;97.86;95922.16;5033673;28;20419;-81
2021/08/28 08:40:57;;;;;;;3.47;2.53;;;;;;;14.00;95.44;95928.25;5033356;28;20430;-80
2021/08/28 08:43:23;;;;;;;3.22;2.45;;;;;;;14.09;93.60;95912.88;5034779;28;20426;-81
2021/08/28 08:45:49;;;;;;;7.10;2.72;;;;;;;14.56;96.92;95917.16;5033352;28;20417;-81
2021/08/28 08:48:15;;;;;;;3.50;2.30;;;;;;;14.70;90.20;95914.31;5033582;28;20415;-80
2021/08/28 08:50:43;;;;;;;2.83;2.20;;;;;;;14.75;90.38;95927.81;5036736;28;20418;-79
2021/08/28 08:53:09;;;;;;;2.05;1.85;;;;;;;14.84;89.04;95915.88;5034713;28;20456;-79
2021/08/28 08:55:34;;;;;;;3.97;2.10;;;;;;;14.59;86.04;95926.50;5035644;28;20463;-81
2021/08/28 08:58:00;;;;;;;2.70;2.10;;;;;;;14.68;85.47;95921.44;5035506;28;20427;-79
2021/08/28 09:00:26;;;;;;;2.83;1.87;;;;;;;14.48;88.14;95929.91;5035847;28;20419;-82
2021/08/28 09:02:51;;;;;;;3.30;2.27;;;;;;;15.10;85.79;95926.06;5034996;28;20980;-81
2021/08/28 09:05:17;;;;;;;2.73;2.30;;;;;;;15.38;84.46;95925.50;5034377;28;20470;-81
2021/08/28 09:07:44;;;;;;;2.73;1.90;;;;;;;15.22;80.70;95927.69;5036291;28;20449;-81
2021/08/28 09:10:12;;;;;;;5.32;2.35;;;;;;;15.25;82.06;95930.88;5034764;28;20423;-82
2021/08/28 09:12:40;;;;;;;2.65;1.83;;;;;;;15.13;82.49;95924.03;5034490;28;20414;-81
2021/08/28 09:15:08;;;;;;;3.80;1.80;;;;;;;15.73;85.45;95927.13;5034718;28;20426;-79
2021/08/28 09:17:34;;;;;;;5.18;2.22;;;;;;;15.68;81.53;95918.81;5033778;28;20415;-81
2021/08/28 09:20:01;;;;;;;2.03;1.60;;;;;;;15.66;82.94;95924.19;5035371;28;20411;-80
2021/08/28 09:22:28;;;;;;;2.65;1.50;;;;;;;15.71;83.08;95926.41;5035329;28;20498;-80
2021/08/28 09:24:59;;;;;;;4.10;1.50;;;;;;;14.98;84.30;95931.28;5034502;28;20422;-81
2021/08/28 09:27:32;;;;;;;2.50;1.55;;;;;;;14.86;86.21;95939.19;5033972;28;20427;-80
2021/08/28 09:29:58;;;;;;;2.60;1.60;;;;;;;14.62;86.87;95934.09;5033656;28;20419;-81
2021/08/28 09:32:23;;;;;;;1.60;1.40;;;;;;;14.68;87.76;95936.22;5033726;28;20422;-80
2021/08/28 09:34:49;;;;;;;1.13;1.03;;;;;;;14.44;88.65;95931.09;5033099;28;20433;-81
2021/08/28 09:37:15;;;;;;;1.47;1.07;;;;;;;14.29;88.67;95928.69;5033215;28;20416;-81
2021/08/28 09:39:43;;;;;;;2.10;1.20;;;;;;;14.25;88.88;95923.81;5033294;28;20423;-80
2021/08/28 09:42:16;;;;;;;2.72;1.58;;;;;;;14.19;90.66;95924.28;5033328;28;20418;-81
2021/08/28 09:44:43;;;;;;;2.70;1.70;;;;;;;14.17;90.41;95923.56;5032824;28;20416;-80
2021/08/28 09:47:11;;;;;;;2.08;1.38;;;;;;;14.08;88.60;95927.69;5033205;28;20824;-81
2021/08/28 09:49:36;;;;;;;2.60;1.60;;;;;;;14.25;88.38;95921.22;5032931;28;20423;-79
2021/08/28 09:52:02;;;;;;;2.33;1.50;;;;;;;14.19;88.80;95927.69;5034617;28;20426;-80
2021/08/28 09:54:27;;;;;;;3.23;1.80;;;;;;;14.16;89.32;95930.53;5032413;28;20510;-80
2021/08/28 09:57:00;;;;;;;3.43;1.73;;;;;;;13.98;90.14;95931.91;5032546;28;20925;-82
2021/08/28 09:59:27;;;;;;;2.15;1.42;;;;;;;13.97;88.92;95930.25;5032828;28;20447;-80
2021/08/28 10:01:52;;;;;;;1.55;1.10;;;;;;;14.24;88.91;95928.22;5034387;28;20782;-80
2021/08/28 10:04:18;;;;;;;1.20;1.10;;;;;;;14.09;88.70;95931.97;5032608;28;20457;-81
2021/08/28 10:06:45;;;;;;;1.60;1.10;;;;;;;14.27;88.22;95933.16;5032357;28;20447;-80
2021/08/28 10:09:12;;;;;;;2.30;1.00;;;;;;;14.23;87.83;95942.16;5032761;28;20418;-80
2021/08/28 10:11:37;;;;;;;2.35;1.42;;;;;;;14.12;85.77;95938.69;5032693;28;20548;-80
2021/08/28 10:14:03;;;;;;;2.37;1.50;;;;;;;13.98;87.61;95943.16;5032584;28;20525;-79
2021/08/28 10:16:30;;;;;;;0.98;0.90;;;;;;;13.99;89.58;95944.00;5032302;28;20476;-80
2021/08/28 10:18:56;;;;;;;1.88;1.30;;;;;;;14.00;91.00;95950.84;5032401;28;20498;-80
2021/08/28 10:21:21;;;;;;;3.30;1.10;;;;;;;13.86;95.02;95946.66;5032091;28;20867;-80
2021/08/28 10:23:52;;;;;;;2.35;1.35;;;;;;;13.77;95.22;95952.53;5032272;28;20442;-80
2021/08/28 10:26:18;;;;;;;1.83;1.33;;;;;;;13.68;95.49;95954.03;5032215;28;20457;-81
2021/08/28 10:28:43;;;;;;;2.70;1.60;;;;;;;13.67;96.63;95954.97;5032017;28;20514;-81
2021/08/28 10:31:11;;;;;;;2.08;1.58;;;;;;;13.45;99.44;95952.25;5031895;28;20427;-80
2021/08/28 10:33:38;;;;;;;2.83;1.60;;;;;;;13.54;100.00;95955.03;5031361;28;20447;-82
2021/08/28 10:36:10;;;;;;;2.53;1.38;;;;;;;13.16;100.00;95949.88;5031084;28;21577;-82
2021/08/28 10:38:37;;;;;;;5.93;1.73;;;;;;;12.98;100.00;95951.19;5035883;28;20447;-80
2021/08/28 10:41:03;;;;;;;2.20;1.63;;;;;;;13.05;100.00;95949.81;5036024;28;20557;-81
2021/08/28 10:43:29;;;;;;;4.55;2.13;;;;;;;12.96;100.00;95953.88;5032998;28;20948;-81
2021/08/28 10:45:55;;;;;;;3.03;1.70;;;;;;;13.11;100.00;95951.16;5031552;28;20414;-80
2021/08/28 10:48:20;;;;;;;3.13;1.80;;;;;;;13.37;100.00;95951.97;5031711;28;20446;-81
2021/08/28 10:50:52;;;;;;;4.40;1.83;;;;;;;13.17;100.00;95961.16;5031689;28;20453;-80
2021/08/28 10:53:18;;;;;;;4.05;2.00;;;;;;;13.06;100.00;95952.31;5032843;28;20454;-81
2021/08/28 10:55:45;;;;;;;3.58;1.52;;;;;;;12.99;100.00;95947.66;5032485;28;20561;-80
2021/08/28 10:58:16;;;;;;;2.35;1.90;;;;;;;13.17;100.00;95954.16;5032913;28;20426;-81
2021/08/28 11:00:42;;;;;;;2.53;1.92;;;;;;;13.20;100.00;95948.75;5031316;28;20824;-79
2021/08/28 11:03:23;;;;;;;4.68;1.80;;;;;;;13.10;100.00;95952.09;5032525;28;20468;-80
2021/08/28 11:06:22;;;;;;;1.85;1.50;;;;;;;13.06;100.00;95954.09;5031045;28;20981;-80
2021/08/28 11:08:50;;;;;;;1.63;1.53;;;;;;;13.30;100.00;95959.34;5029940;28;20434;-80
2021/08/28 11:11:26;;;;;;;2.13;1.65;;;;;;;12.99;100.00;95963.25;5030913;28;20422;-81
2021/08/28 11:14:00;;;;;;;1.88;1.45;;;;;;;12.99;100.00;95958.06;5030951;28;20423;-80
2021/08/28 11:16:51;;;;;;;3.60;1.65;;;;;;;12.88;100.00;95958.78;5032184;28;20792;-80
2021/08/28 11:19:46;;;;;;;1.85;1.45;;;;;;;12.86;100.00;95962.41;5035085;28;20590;-81
2021/08/28 11:22:21;;;;;;;2.50;1.52;;;;;;;12.74;100.00;95958.91;5035424;28;20510;-80
2021/08/28 11:24:56;;;;;;;1.98;1.30;;;;;;;12.89;100.00;95959.63;5034982;28;20430;-80